CheckWX is a tool to help pilots better visualize weather data.  It is not intended as a substitute for an official pre-flight weather briefing.

01:06:08 UTC

CYDQ TAF
Dawson Creek Airport
Dawson Creek, Canada
TAF CYDQ 200038Z 2001/2005 02006KT P6SM SCT030 BKN200 BECMG 2003/2005 BKN040 BKN120 RMK FCST BASED ON AUTO OBS. NXT FCST WILL BE ISSUED AT 201245Z

Aug-20@
01:00 UTC

Aug-20 @ 01:00 UTC

Aug-20@
03:00 UTC

Aug-20 @ 03:00 UTC

TAF CYDQ 200038Z 2001/2005 02006KT P6SM SCT030 BKN200
Wind
  • 020° at 6 KTS
Cloud Levels
  • Scattered at 3,000' AGL
  • Broken at 20,000' AGL

Aug-20@
03:00 UTC

Aug-20 @ 03:00 UTC

Aug-20@
05:00 UTC

Aug-20 @ 05:00 UTC

BECMG 2003/2005 BKN040 BKN120 RMK FCST BASED ON AUTO OBS. NXT FCST WILL BE ISSUED AT 201245Z

Becoming

Becoming Conditions expected by Tue, Aug 20, 2019 @ 05:00 UTC

Wind
  • 020° at 6 KTS
Cloud Levels
  • Broken at 4,000' AGL
  • Broken at 12,000' AGL